sensor_id;sensor_type;location;lat;lon;timestamp;P1;durP1;ratioP1;P2;durP2;ratioP2
8594;SDS011;4335;48.860;9.198;2022-11-12T00:01:04;13.20;;;9.20;;
8594;SDS011;4335;48.860;9.198;2022-11-12T00:03:30;14.27;;;9.83;;
8594;SDS011;4335;48.860;9.198;2022-11-12T00:05:57;13.17;;;10.10;;
8594;SDS011;4335;48.860;9.198;2022-11-12T00:08:23;10.83;;;9.20;;
8594;SDS011;4335;48.860;9.198;2022-11-12T00:10:50;12.03;;;9.70;;
8594;SDS011;4335;48.860;9.198;2022-11-12T00:13:17;10.67;;;8.83;;
8594;SDS011;4335;48.860;9.198;2022-11-12T00:15:44;9.90;;;8.80;;
8594;SDS011;4335;48.860;9.198;2022-11-12T00:18:12;11.50;;;8.53;;
8594;SDS011;4335;48.860;9.198;2022-11-12T00:20:47;11.80;;;9.00;;
8594;SDS011;4335;48.860;9.198;2022-11-12T00:23:13;11.47;;;8.73;;
8594;SDS011;4335;48.860;9.198;2022-11-12T00:25:40;11.70;;;9.10;;
8594;SDS011;4335;48.860;9.198;2022-11-12T00:28:07;11.43;;;8.73;;
8594;SDS011;4335;48.860;9.198;2022-11-12T00:30:36;10.40;;;8.87;;
8594;SDS011;4335;48.860;9.198;2022-11-12T00:33:04;12.67;;;8.23;;
8594;SDS011;4335;48.860;9.198;2022-11-12T00:35:31;11.53;;;8.50;;
8594;SDS011;4335;48.860;9.198;2022-11-12T00:37:58;12.07;;;9.07;;
8594;SDS011;4335;48.860;9.198;2022-11-12T00:40:25;13.23;;;9.17;;
8594;SDS011;4335;48.860;9.198;2022-11-12T00:42:52;11.53;;;9.27;;
8594;SDS011;4335;48.860;9.198;2022-11-12T00:45:19;11.83;;;8.77;;
8594;SDS011;4335;48.860;9.198;2022-11-12T00:47:47;12.53;;;9.07;;
8594;SDS011;4335;48.860;9.198;2022-11-12T00:50:14;11.10;;;8.43;;
8594;SDS011;4335;48.860;9.198;2022-11-12T00:52:40;13.00;;;9.13;;
8594;SDS011;4335;48.860;9.198;2022-11-12T00:55:07;12.83;;;9.13;;
8594;SDS011;4335;48.860;9.198;2022-11-12T00:57:34;10.73;;;9.00;;
8594;SDS011;4335;48.860;9.198;2022-11-12T01:00:13;10.90;;;9.23;;
8594;SDS011;4335;48.860;9.198;2022-11-12T01:02:41;11.30;;;9.20;;
8594;SDS011;4335;48.860;9.198;2022-11-12T01:05:08;12.03;;;9.73;;
8594;SDS011;4335;48.860;9.198;2022-11-12T01:07:35;11.13;;;9.67;;
8594;SDS011;4335;48.860;9.198;2022-11-12T01:10:07;13.83;;;10.20;;
8594;SDS011;4335;48.860;9.198;2022-11-12T01:12:35;12.73;;;9.80;;
8594;SDS011;4335;48.860;9.198;2022-11-12T01:15:03;14.70;;;10.97;;
8594;SDS011;4335;48.860;9.198;2022-11-12T01:17:31;13.63;;;9.70;;
8594;SDS011;4335;48.860;9.198;2022-11-12T01:19:58;12.93;;;9.50;;
8594;SDS011;4335;48.860;9.198;2022-11-12T01:22:28;12.43;;;9.90;;
8594;SDS011;4335;48.860;9.198;2022-11-12T01:24:54;15.07;;;10.53;;
8594;SDS011;4335;48.860;9.198;2022-11-12T01:27:21;12.53;;;9.90;;
8594;SDS011;4335;48.860;9.198;2022-11-12T01:29:48;10.37;;;8.87;;
8594;SDS011;4335;48.860;9.198;2022-11-12T01:32:14;11.77;;;8.77;;
8594;SDS011;4335;48.860;9.198;2022-11-12T01:34:41;9.83;;;8.37;;
8594;SDS011;4335;48.860;9.198;2022-11-12T01:37:13;9.70;;;8.70;;
8594;SDS011;4335;48.860;9.198;2022-11-12T01:39:40;10.70;;;8.53;;
8594;SDS011;4335;48.860;9.198;2022-11-12T01:42:09;9.37;;;8.37;;
8594;SDS011;4335;48.860;9.198;2022-11-12T01:44:37;11.17;;;8.87;;
8594;SDS011;4335;48.860;9.198;2022-11-12T01:47:09;12.47;;;9.57;;
8594;SDS011;4335;48.860;9.198;2022-11-12T01:49:40;12.43;;;9.57;;
8594;SDS011;4335;48.860;9.198;2022-11-12T01:52:11;11.27;;;9.17;;
8594;SDS011;4335;48.860;9.198;2022-11-12T01:54:43;11.87;;;9.27;;
8594;SDS011;4335;48.860;9.198;2022-11-12T01:57:13;13.00;;;8.87;;
8594;SDS011;4335;48.860;9.198;2022-11-12T01:59:46;11.63;;;8.30;;
8594;SDS011;4335;48.860;9.198;2022-11-12T02:02:15;11.27;;;8.43;;
8594;SDS011;4335;48.860;9.198;2022-11-12T02:04:42;9.77;;;8.40;;
8594;SDS011;4335;48.860;9.198;2022-11-12T02:07:10;11.23;;;9.27;;
8594;SDS011;4335;48.860;9.198;2022-11-12T02:09:38;10.93;;;8.50;;
8594;SDS011;4335;48.860;9.198;2022-11-12T02:12:11;11.00;;;8.80;;
8594;SDS011;4335;48.860;9.198;2022-11-12T02:15:02;10.97;;;9.17;;
8594;SDS011;4335;48.860;9.198;2022-11-12T02:17:29;12.13;;;8.83;;
8594;SDS011;4335;48.860;9.198;2022-11-12T02:19:57;12.57;;;10.13;;
8594;SDS011;4335;48.860;9.198;2022-11-12T02:22:28;13.37;;;10.67;;
8594;SDS011;4335;48.860;9.198;2022-11-12T02:24:54;10.93;;;8.50;;
8594;SDS011;4335;48.860;9.198;2022-11-12T02:27:21;11.10;;;9.47;;
8594;SDS011;4335;48.860;9.198;2022-11-12T02:29:49;10.57;;;8.53;;
8594;SDS011;4335;48.860;9.198;2022-11-12T02:32:17;12.07;;;8.90;;
8594;SDS011;4335;48.860;9.198;2022-11-12T02:34:44;12.97;;;9.00;;
8594;SDS011;4335;48.860;9.198;2022-11-12T02:37:11;11.30;;;8.70;;
8594;SDS011;4335;48.860;9.198;2022-11-12T02:39:38;10.17;;;8.70;;
8594;SDS011;4335;48.860;9.198;2022-11-12T02:42:05;10.33;;;8.53;;
8594;SDS011;4335;48.860;9.198;2022-11-12T02:44:32;10.20;;;9.07;;
8594;SDS011;4335;48.860;9.198;2022-11-12T02:46:58;11.90;;;10.10;;
8594;SDS011;4335;48.860;9.198;2022-11-12T02:49:25;12.50;;;10.63;;
8594;SDS011;4335;48.860;9.198;2022-11-12T02:51:52;9.00;;;7.97;;
8594;SDS011;4335;48.860;9.198;2022-11-12T02:54:25;11.73;;;8.77;;
8594;SDS011;4335;48.860;9.198;2022-11-12T02:56:54;11.13;;;8.63;;
8594;SDS011;4335;48.860;9.198;2022-11-12T02:59:21;9.97;;;8.80;;
8594;SDS011;4335;48.860;9.198;2022-11-12T03:01:48;12.07;;;8.80;;
8594;SDS011;4335;48.860;9.198;2022-11-12T03:04:17;9.93;;;8.47;;
8594;SDS011;4335;48.860;9.198;2022-11-12T03:06:47;9.37;;;8.17;;
8594;SDS011;4335;48.860;9.198;2022-11-12T03:09:14;11.53;;;9.50;;
8594;SDS011;4335;48.860;9.198;2022-11-12T03:11:40;13.83;;;9.57;;
8594;SDS011;4335;48.860;9.198;2022-11-12T03:14:08;12.13;;;9.93;;
8594;SDS011;4335;48.860;9.198;2022-11-12T03:16:35;10.37;;;8.33;;
8594;SDS011;4335;48.860;9.198;2022-11-12T03:19:04;9.57;;;7.87;;
8594;SDS011;4335;48.860;9.198;2022-11-12T03:21:31;9.30;;;8.17;;
8594;SDS011;4335;48.860;9.198;2022-11-12T03:23:59;10.40;;;7.70;;
8594;SDS011;4335;48.860;9.198;2022-11-12T03:26:26;10.27;;;7.47;;
8594;SDS011;4335;48.860;9.198;2022-11-12T03:28:56;9.93;;;8.40;;
8594;SDS011;4335;48.860;9.198;2022-11-12T03:31:26;8.90;;;8.00;;
8594;SDS011;4335;48.860;9.198;2022-11-12T03:33:56;10.30;;;7.47;;
8594;SDS011;4335;48.860;9.198;2022-11-12T03:36:25;8.87;;;7.20;;
8594;SDS011;4335;48.860;9.198;2022-11-12T03:38:58;9.17;;;7.97;;
8594;SDS011;4335;48.860;9.198;2022-11-12T03:41:37;8.03;;;7.23;;
8594;SDS011;4335;48.860;9.198;2022-11-12T03:44:11;8.43;;;6.90;;
8594;SDS011;4335;48.860;9.198;2022-11-12T03:46:43;8.43;;;7.63;;
8594;SDS011;4335;48.860;9.198;2022-11-12T03:49:14;10.00;;;7.90;;
8594;SDS011;4335;48.860;9.198;2022-11-12T03:51:50;9.57;;;7.20;;
8594;SDS011;4335;48.860;9.198;2022-11-12T03:54:30;8.73;;;7.00;;
8594;SDS011;4335;48.860;9.198;2022-11-12T03:57:16;8.07;;;6.73;;
8594;SDS011;4335;48.860;9.198;2022-11-12T03:59:43;7.33;;;6.40;;
8594;SDS011;4335;48.860;9.198;2022-11-12T04:02:16;7.33;;;6.00;;
8594;SDS011;4335;48.860;9.198;2022-11-12T04:04:47;6.30;;;5.70;;
8594;SDS011;4335;48.860;9.198;2022-11-12T04:07:32;7.17;;;6.47;;
8594;SDS011;4335;48.860;9.198;2022-11-12T04:10:22;7.23;;;6.03;;
8594;SDS011;4335;48.860;9.198;2022-11-12T04:12:56;6.63;;;6.03;;
8594;SDS011;4335;48.860;9.198;2022-11-12T04:15:43;7.93;;;6.27;;
8594;SDS011;4335;48.860;9.198;2022-11-12T04:18:38;9.33;;;6.70;;
8594;SDS011;4335;48.860;9.198;2022-11-12T04:21:23;9.17;;;6.33;;
8594;SDS011;4335;48.860;9.198;2022-11-12T04:24:21;6.10;;;5.50;;
8594;SDS011;4335;48.860;9.198;2022-11-12T04:27:08;7.00;;;5.63;;
8594;SDS011;4335;48.860;9.198;2022-11-12T04:30:01;6.87;;;6.17;;
8594;SDS011;4335;48.860;9.198;2022-11-12T04:32:48;6.70;;;5.60;;
8594;SDS011;4335;48.860;9.198;2022-11-12T04:35:19;6.43;;;5.73;;
8594;SDS011;4335;48.860;9.198;2022-11-12T04:37:55;5.50;;;5.00;;
8594;SDS011;4335;48.860;9.198;2022-11-12T04:40:23;6.67;;;5.93;;
8594;SDS011;4335;48.860;9.198;2022-11-12T04:43:09;5.80;;;5.30;;
8594;SDS011;4335;48.860;9.198;2022-11-12T04:45:56;6.90;;;6.10;;
8594;SDS011;4335;48.860;9.198;2022-11-12T04:48:25;6.23;;;5.63;;
8594;SDS011;4335;48.860;9.198;2022-11-12T04:50:58;6.47;;;5.77;;
8594;SDS011;4335;48.860;9.198;2022-11-12T04:53:52;8.07;;;6.93;;
8594;SDS011;4335;48.860;9.198;2022-11-12T04:56:19;9.17;;;6.37;;
8594;SDS011;4335;48.860;9.198;2022-11-12T04:58:54;7.93;;;6.17;;
8594;SDS011;4335;48.860;9.198;2022-11-12T05:01:40;5.80;;;5.27;;
8594;SDS011;4335;48.860;9.198;2022-11-12T05:04:09;6.63;;;5.97;;
8594;SDS011;4335;48.860;9.198;2022-11-12T05:06:39;6.00;;;5.50;;
8594;SDS011;4335;48.860;9.198;2022-11-12T05:09:33;6.20;;;5.43;;
8594;SDS011;4335;48.860;9.198;2022-11-12T05:11:59;6.10;;;5.47;;
8594;SDS011;4335;48.860;9.198;2022-11-12T05:14:36;6.67;;;5.40;;
8594;SDS011;4335;48.860;9.198;2022-11-12T05:17:07;5.80;;;5.17;;
8594;SDS011;4335;48.860;9.198;2022-11-12T05:19:34;6.37;;;5.43;;
8594;SDS011;4335;48.860;9.198;2022-11-12T05:22:11;5.70;;;5.10;;
8594;SDS011;4335;48.860;9.198;2022-11-12T05:24:43;6.67;;;5.27;;
8594;SDS011;4335;48.860;9.198;2022-11-12T05:27:15;5.73;;;5.20;;
8594;SDS011;4335;48.860;9.198;2022-11-12T05:29:48;6.33;;;5.50;;
8594;SDS011;4335;48.860;9.198;2022-11-12T05:32:20;6.10;;;5.37;;
8594;SDS011;4335;48.860;9.198;2022-11-12T05:34:59;5.37;;;4.80;;
8594;SDS011;4335;48.860;9.198;2022-11-12T05:37:36;5.60;;;5.10;;
8594;SDS011;4335;48.860;9.198;2022-11-12T05:40:08;5.17;;;4.67;;
8594;SDS011;4335;48.860;9.198;2022-11-12T05:42:38;5.40;;;4.87;;
8594;SDS011;4335;48.860;9.198;2022-11-12T05:45:09;5.20;;;4.80;;
8594;SDS011;4335;48.860;9.198;2022-11-12T05:47:43;5.60;;;5.20;;
8594;SDS011;4335;48.860;9.198;2022-11-12T05:50:13;6.27;;;5.10;;
8594;SDS011;4335;48.860;9.198;2022-11-12T05:52:41;6.23;;;4.77;;
8594;SDS011;4335;48.860;9.198;2022-11-12T05:55:09;5.80;;;5.20;;
8594;SDS011;4335;48.860;9.198;2022-11-12T05:57:53;5.23;;;4.70;;
8594;SDS011;4335;48.860;9.198;2022-11-12T06:00:28;5.20;;;4.80;;
8594;SDS011;4335;48.860;9.198;2022-11-12T06:03:03;5.00;;;4.50;;
8594;SDS011;4335;48.860;9.198;2022-11-12T06:05:38;5.80;;;5.00;;
8594;SDS011;4335;48.860;9.198;2022-11-12T06:08:27;5.27;;;4.80;;
8594;SDS011;4335;48.860;9.198;2022-11-12T06:10:57;5.50;;;5.00;;
8594;SDS011;4335;48.860;9.198;2022-11-12T06:13:24;7.00;;;5.13;;
8594;SDS011;4335;48.860;9.198;2022-11-12T06:15:54;6.47;;;5.70;;
8594;SDS011;4335;48.860;9.198;2022-11-12T06:18:28;5.87;;;5.27;;
8594;SDS011;4335;48.860;9.198;2022-11-12T06:20:59;5.73;;;5.13;;
8594;SDS011;4335;48.860;9.198;2022-11-12T06:23:48;6.57;;;5.23;;
8594;SDS011;4335;48.860;9.198;2022-11-12T06:26:16;7.10;;;5.83;;
8594;SDS011;4335;48.860;9.198;2022-11-12T06:28:51;6.53;;;5.57;;
8594;SDS011;4335;48.860;9.198;2022-11-12T06:31:24;8.37;;;5.30;;
8594;SDS011;4335;48.860;9.198;2022-11-12T06:33:55;6.57;;;5.77;;
8594;SDS011;4335;48.860;9.198;2022-11-12T06:36:22;6.70;;;5.40;;
8594;SDS011;4335;48.860;9.198;2022-11-12T06:39:09;6.20;;;5.60;;
8594;SDS011;4335;48.860;9.198;2022-11-12T06:41:45;7.63;;;6.30;;
8594;SDS011;4335;48.860;9.198;2022-11-12T06:44:14;7.40;;;5.90;;
8594;SDS011;4335;48.860;9.198;2022-11-12T06:46:43;9.00;;;6.57;;
8594;SDS011;4335;48.860;9.198;2022-11-12T06:49:10;7.37;;;6.20;;
8594;SDS011;4335;48.860;9.198;2022-11-12T06:51:37;9.50;;;7.33;;
8594;SDS011;4335;48.860;9.198;2022-11-12T06:54:06;7.47;;;6.23;;
8594;SDS011;4335;48.860;9.198;2022-11-12T06:56:33;7.50;;;6.30;;
8594;SDS011;4335;48.860;9.198;2022-11-12T06:59:00;9.07;;;6.17;;
8594;SDS011;4335;48.860;9.198;2022-11-12T07:01:29;6.33;;;5.73;;
8594;SDS011;4335;48.860;9.198;2022-11-12T07:03:56;6.70;;;6.03;;
8594;SDS011;4335;48.860;9.198;2022-11-12T07:06:23;6.83;;;6.13;;
8594;SDS011;4335;48.860;9.198;2022-11-12T07:08:49;8.10;;;5.73;;
8594;SDS011;4335;48.860;9.198;2022-11-12T07:11:17;8.23;;;6.10;;
8594;SDS011;4335;48.860;9.198;2022-11-12T07:13:45;6.60;;;5.97;;
8594;SDS011;4335;48.860;9.198;2022-11-12T07:16:12;6.50;;;5.80;;
8594;SDS011;4335;48.860;9.198;2022-11-12T07:21:51;6.33;;;5.73;;
8594;SDS011;4335;48.860;9.198;2022-11-12T07:24:20;7.13;;;6.10;;
8594;SDS011;4335;48.860;9.198;2022-11-12T07:26:48;7.57;;;6.40;;
8594;SDS011;4335;48.860;9.198;2022-11-12T07:29:20;9.03;;;6.87;;
8594;SDS011;4335;48.860;9.198;2022-11-12T07:31:47;7.97;;;6.70;;
8594;SDS011;4335;48.860;9.198;2022-11-12T07:34:14;7.50;;;6.80;;
8594;SDS011;4335;48.860;9.198;2022-11-12T07:36:47;7.73;;;6.20;;
8594;SDS011;4335;48.860;9.198;2022-11-12T07:39:16;6.90;;;6.00;;
8594;SDS011;4335;48.860;9.198;2022-11-12T07:41:46;7.40;;;6.60;;
8594;SDS011;4335;48.860;9.198;2022-11-12T07:44:16;6.67;;;5.97;;
8594;SDS011;4335;48.860;9.198;2022-11-12T07:46:46;7.07;;;6.33;;
8594;SDS011;4335;48.860;9.198;2022-11-12T07:49:12;7.00;;;5.73;;
8594;SDS011;4335;48.860;9.198;2022-11-12T07:51:39;6.97;;;5.93;;
8594;SDS011;4335;48.860;9.198;2022-11-12T07:54:17;7.57;;;5.90;;
8594;SDS011;4335;48.860;9.198;2022-11-12T07:56:43;6.87;;;6.17;;
8594;SDS011;4335;48.860;9.198;2022-11-12T07:59:16;6.63;;;6.03;;
8594;SDS011;4335;48.860;9.198;2022-11-12T08:01:45;7.33;;;6.30;;
8594;SDS011;4335;48.860;9.198;2022-11-12T08:04:17;7.13;;;6.43;;
8594;SDS011;4335;48.860;9.198;2022-11-12T08:06:43;6.27;;;5.67;;
8594;SDS011;4335;48.860;9.198;2022-11-12T08:12:02;6.50;;;5.90;;
8594;SDS011;4335;48.860;9.198;2022-11-12T08:14:39;6.17;;;5.57;;
8594;SDS011;4335;48.860;9.198;2022-11-12T08:17:05;6.17;;;5.57;;
8594;SDS011;4335;48.860;9.198;2022-11-12T08:19:35;6.23;;;5.63;;
8594;SDS011;4335;48.860;9.198;2022-11-12T08:22:12;5.73;;;5.13;;
8594;SDS011;4335;48.860;9.198;2022-11-12T08:24:41;6.40;;;5.70;;
8594;SDS011;4335;48.860;9.198;2022-11-12T08:27:09;5.60;;;5.10;;
8594;SDS011;4335;48.860;9.198;2022-11-12T08:32:16;5.77;;;5.17;;
8594;SDS011;4335;48.860;9.198;2022-11-12T08:34:46;7.37;;;6.20;;
8594;SDS011;4335;48.860;9.198;2022-11-12T08:37:12;6.23;;;5.63;;
8594;SDS011;4335;48.860;9.198;2022-11-12T08:39:42;8.53;;;7.07;;
8594;SDS011;4335;48.860;9.198;2022-11-12T08:42:19;5.47;;;4.97;;
8594;SDS011;4335;48.860;9.198;2022-11-12T08:44:51;5.40;;;4.90;;
8594;SDS011;4335;48.860;9.198;2022-11-12T08:47:21;7.77;;;5.40;;
8594;SDS011;4335;48.860;9.198;2022-11-12T08:49:47;6.13;;;5.53;;
8594;SDS011;4335;48.860;9.198;2022-11-12T08:52:16;5.93;;;5.20;;
8594;SDS011;4335;48.860;9.198;2022-11-12T08:55:00;6.47;;;5.67;;
8594;SDS011;4335;48.860;9.198;2022-11-12T08:57:37;5.33;;;4.80;;
8594;SDS011;4335;48.860;9.198;2022-11-12T09:00:09;7.50;;;6.30;;
8594;SDS011;4335;48.860;9.198;2022-11-12T09:02:39;7.13;;;5.90;;
8594;SDS011;4335;48.860;9.198;2022-11-12T09:05:06;11.60;;;5.43;;
8594;SDS011;4335;48.860;9.198;2022-11-12T09:07:36;5.97;;;5.13;;
8594;SDS011;4335;48.860;9.198;2022-11-12T09:10:03;6.37;;;5.77;;
8594;SDS011;4335;48.860;9.198;2022-11-12T09:12:34;6.53;;;5.17;;
8594;SDS011;4335;48.860;9.198;2022-11-12T09:15:02;6.70;;;5.70;;
8594;SDS011;4335;48.860;9.198;2022-11-12T09:17:36;5.30;;;4.67;;
8594;SDS011;4335;48.860;9.198;2022-11-12T09:20:03;6.77;;;5.73;;
8594;SDS011;4335;48.860;9.198;2022-11-12T09:22:33;7.20;;;5.27;;
8594;SDS011;4335;48.860;9.198;2022-11-12T09:25:03;5.17;;;4.67;;
8594;SDS011;4335;48.860;9.198;2022-11-12T09:27:34;7.10;;;5.70;;
8594;SDS011;4335;48.860;9.198;2022-11-12T09:30:03;6.23;;;5.23;;
8594;SDS011;4335;48.860;9.198;2022-11-12T09:32:52;7.27;;;5.33;;
8594;SDS011;4335;48.860;9.198;2022-11-12T09:35:22;5.40;;;4.83;;
8594;SDS011;4335;48.860;9.198;2022-11-12T09:37:50;5.83;;;5.20;;
8594;SDS011;4335;48.860;9.198;2022-11-12T09:40:19;5.23;;;4.80;;
8594;SDS011;4335;48.860;9.198;2022-11-12T09:42:46;5.83;;;5.27;;
8594;SDS011;4335;48.860;9.198;2022-11-12T09:45:24;6.50;;;5.23;;
8594;SDS011;4335;48.860;9.198;2022-11-12T09:47:58;5.67;;;4.20;;
8594;SDS011;4335;48.860;9.198;2022-11-12T09:50:35;5.33;;;4.50;;
8594;SDS011;4335;48.860;9.198;2022-11-12T09:53:07;4.83;;;4.33;;
8594;SDS011;4335;48.860;9.198;2022-11-12T09:55:43;5.00;;;4.53;;
8594;SDS011;4335;48.860;9.198;2022-11-12T09:58:17;5.67;;;4.67;;
8594;SDS011;4335;48.860;9.198;2022-11-12T10:00:51;6.00;;;4.17;;
8594;SDS011;4335;48.860;9.198;2022-11-12T10:03:30;6.00;;;4.77;;
8594;SDS011;4335;48.860;9.198;2022-11-12T10:06:16;4.70;;;4.30;;
8594;SDS011;4335;48.860;9.198;2022-11-12T10:08:52;5.13;;;4.57;;
8594;SDS011;4335;48.860;9.198;2022-11-12T10:11:34;6.80;;;5.10;;
8594;SDS011;4335;48.860;9.198;2022-11-12T10:14:36;5.17;;;4.23;;
8594;SDS011;4335;48.860;9.198;2022-11-12T10:17:48;4.73;;;4.23;;
8594;SDS011;4335;48.860;9.198;2022-11-12T10:20:29;4.50;;;4.10;;
8594;SDS011;4335;48.860;9.198;2022-11-12T10:23:11;4.93;;;4.43;;
8594;SDS011;4335;48.860;9.198;2022-11-12T10:25:48;4.60;;;3.87;;
8594;SDS011;4335;48.860;9.198;2022-11-12T10:28:23;5.00;;;3.77;;
8594;SDS011;4335;48.860;9.198;2022-11-12T10:33:43;4.30;;;3.67;;
8594;SDS011;4335;48.860;9.198;2022-11-12T10:36:16;4.97;;;3.83;;
8594;SDS011;4335;48.860;9.198;2022-11-12T10:38:50;10.60;;;8.50;;
8594;SDS011;4335;48.860;9.198;2022-11-12T10:41:22;4.63;;;4.03;;
8594;SDS011;4335;48.860;9.198;2022-11-12T10:44:04;4.53;;;3.97;;
8594;SDS011;4335;48.860;9.198;2022-11-12T10:46:42;4.00;;;3.70;;
8594;SDS011;4335;48.860;9.198;2022-11-12T10:49:27;4.93;;;4.10;;
8594;SDS011;4335;48.860;9.198;2022-11-12T10:52:00;4.20;;;3.87;;
8594;SDS011;4335;48.860;9.198;2022-11-12T10:54:34;4.17;;;3.70;;
8594;SDS011;4335;48.860;9.198;2022-11-12T10:57:08;3.83;;;3.53;;
8594;SDS011;4335;48.860;9.198;2022-11-12T10:59:59;4.87;;;3.53;;
8594;SDS011;4335;48.860;9.198;2022-11-12T11:02:34;4.50;;;3.70;;
8594;SDS011;4335;48.860;9.198;2022-11-12T11:08:03;4.77;;;4.13;;
8594;SDS011;4335;48.860;9.198;2022-11-12T11:10:31;5.67;;;3.70;;
8594;SDS011;4335;48.860;9.198;2022-11-12T11:13:17;4.00;;;3.67;;
8594;SDS011;4335;48.860;9.198;2022-11-12T11:15:58;6.23;;;3.87;;
8594;SDS011;4335;48.860;9.198;2022-11-12T11:18:26;4.43;;;3.87;;
8594;SDS011;4335;48.860;9.198;2022-11-12T11:20:55;5.30;;;4.87;;
8594;SDS011;4335;48.860;9.198;2022-11-12T11:23:41;3.87;;;3.43;;
8594;SDS011;4335;48.860;9.198;2022-11-12T11:26:24;4.13;;;3.50;;
8594;SDS011;4335;48.860;9.198;2022-11-12T11:28:59;4.93;;;3.67;;
8594;SDS011;4335;48.860;9.198;2022-11-12T11:31:44;10.53;;;4.70;;
8594;SDS011;4335;48.860;9.198;2022-11-12T11:34:24;4.40;;;4.00;;
8594;SDS011;4335;48.860;9.198;2022-11-12T11:37:02;4.23;;;3.70;;
8594;SDS011;4335;48.860;9.198;2022-11-12T11:39:49;4.60;;;4.00;;
8594;SDS011;4335;48.860;9.198;2022-11-12T11:42:37;4.73;;;4.23;;
8594;SDS011;4335;48.860;9.198;2022-11-12T11:45:27;5.40;;;4.00;;
8594;SDS011;4335;48.860;9.198;2022-11-12T11:48:04;4.33;;;3.90;;
8594;SDS011;4335;48.860;9.198;2022-11-12T11:50:38;4.17;;;3.77;;
8594;SDS011;4335;48.860;9.198;2022-11-12T11:53:16;4.63;;;4.23;;
8594;SDS011;4335;48.860;9.198;2022-11-12T11:55:52;4.40;;;4.00;;
8594;SDS011;4335;48.860;9.198;2022-11-12T12:01:22;5.63;;;4.20;;
8594;SDS011;4335;48.860;9.198;2022-11-12T12:04:04;4.77;;;4.37;;
8594;SDS011;4335;48.860;9.198;2022-11-12T12:06:48;5.53;;;4.30;;
8594;SDS011;4335;48.860;9.198;2022-11-12T12:09:25;4.17;;;3.77;;
8594;SDS011;4335;48.860;9.198;2022-11-12T12:12:03;5.07;;;4.43;;
8594;SDS011;4335;48.860;9.198;2022-11-12T12:14:48;7.17;;;5.70;;
8594;SDS011;4335;48.860;9.198;2022-11-12T12:17:26;6.17;;;5.33;;
8594;SDS011;4335;48.860;9.198;2022-11-12T12:20:04;5.40;;;4.60;;
8594;SDS011;4335;48.860;9.198;2022-11-12T12:22:45;6.13;;;4.63;;
8594;SDS011;4335;48.860;9.198;2022-11-12T12:25:16;5.07;;;4.57;;
8594;SDS011;4335;48.860;9.198;2022-11-12T12:27:51;5.53;;;5.03;;
8594;SDS011;4335;48.860;9.198;2022-11-12T12:30:24;6.43;;;4.87;;
8594;SDS011;4335;48.860;9.198;2022-11-12T12:32:52;8.67;;;6.87;;
8594;SDS011;4335;48.860;9.198;2022-11-12T12:35:25;8.97;;;6.53;;
8594;SDS011;4335;48.860;9.198;2022-11-12T12:38:00;6.60;;;5.17;;
8594;SDS011;4335;48.860;9.198;2022-11-12T12:40:40;6.83;;;5.13;;
8594;SDS011;4335;48.860;9.198;2022-11-12T12:43:16;5.57;;;4.33;;
8594;SDS011;4335;48.860;9.198;2022-11-12T12:45:47;4.80;;;3.87;;
8594;SDS011;4335;48.860;9.198;2022-11-12T12:48:18;6.97;;;5.97;;
8594;SDS011;4335;48.860;9.198;2022-11-12T12:50:52;5.73;;;4.60;;
8594;SDS011;4335;48.860;9.198;2022-11-12T12:53:29;6.73;;;5.07;;
8594;SDS011;4335;48.860;9.198;2022-11-12T12:56:00;7.63;;;5.10;;
8594;SDS011;4335;48.860;9.198;2022-11-12T12:58:31;6.97;;;5.00;;
8594;SDS011;4335;48.860;9.198;2022-11-12T13:01:26;5.90;;;4.73;;
8594;SDS011;4335;48.860;9.198;2022-11-12T13:03:56;5.80;;;4.40;;
8594;SDS011;4335;48.860;9.198;2022-11-12T13:06:27;6.03;;;4.60;;
8594;SDS011;4335;48.860;9.198;2022-11-12T13:09:04;5.17;;;4.10;;
8594;SDS011;4335;48.860;9.198;2022-11-12T13:11:55;5.27;;;4.77;;
8594;SDS011;4335;48.860;9.198;2022-11-12T13:18:06;5.17;;;4.67;;
8594;SDS011;4335;48.860;9.198;2022-11-12T13:20:35;4.80;;;4.33;;
8594;SDS011;4335;48.860;9.198;2022-11-12T13:26:40;6.47;;;5.00;;
8594;SDS011;4335;48.860;9.198;2022-11-12T13:32:30;6.40;;;4.97;;
8594;SDS011;4335;48.860;9.198;2022-11-12T13:37:59;5.80;;;4.90;;
8594;SDS011;4335;48.860;9.198;2022-11-12T13:40:47;5.50;;;4.70;;
8594;SDS011;4335;48.860;9.198;2022-11-12T13:43:27;5.60;;;4.50;;
8594;SDS011;4335;48.860;9.198;2022-11-12T13:46:11;5.17;;;4.60;;
8594;SDS011;4335;48.860;9.198;2022-11-12T13:48:51;6.30;;;5.70;;
8594;SDS011;4335;48.860;9.198;2022-11-12T13:51:27;7.77;;;5.03;;
8594;SDS011;4335;48.860;9.198;2022-11-12T13:54:00;6.53;;;4.83;;
8594;SDS011;4335;48.860;9.198;2022-11-12T13:56:28;6.87;;;5.07;;
8594;SDS011;4335;48.860;9.198;2022-11-12T13:59:06;7.57;;;5.50;;
8594;SDS011;4335;48.860;9.198;2022-11-12T14:01:38;6.63;;;5.93;;
8594;SDS011;4335;48.860;9.198;2022-11-12T14:04:10;7.20;;;6.27;;
8594;SDS011;4335;48.860;9.198;2022-11-12T14:06:39;5.70;;;4.67;;
8594;SDS011;4335;48.860;9.198;2022-11-12T14:09:14;8.67;;;6.57;;
8594;SDS011;4335;48.860;9.198;2022-11-12T14:12:01;5.70;;;5.10;;
8594;SDS011;4335;48.860;9.198;2022-11-12T14:14:41;7.90;;;6.23;;
8594;SDS011;4335;48.860;9.198;2022-11-12T14:17:30;7.77;;;5.77;;
8594;SDS011;4335;48.860;9.198;2022-11-12T14:20:18;6.63;;;5.90;;
8594;SDS011;4335;48.860;9.198;2022-11-12T14:22:53;8.63;;;6.30;;
8594;SDS011;4335;48.860;9.198;2022-11-12T14:25:23;12.70;;;7.77;;
8594;SDS011;4335;48.860;9.198;2022-11-12T14:27:51;7.50;;;6.70;;
8594;SDS011;4335;48.860;9.198;2022-11-12T14:30:20;7.90;;;6.53;;
8594;SDS011;4335;48.860;9.198;2022-11-12T14:32:50;10.77;;;6.00;;
8594;SDS011;4335;48.860;9.198;2022-11-12T14:35:26;7.60;;;6.30;;
8594;SDS011;4335;48.860;9.198;2022-11-12T14:37:59;7.10;;;6.40;;
8594;SDS011;4335;48.860;9.198;2022-11-12T14:40:41;8.70;;;6.80;;
8594;SDS011;4335;48.860;9.198;2022-11-12T14:43:19;8.93;;;7.13;;
8594;SDS011;4335;48.860;9.198;2022-11-12T14:45:56;7.33;;;6.63;;
8594;SDS011;4335;48.860;9.198;2022-11-12T14:48:24;11.23;;;8.40;;
8594;SDS011;4335;48.860;9.198;2022-11-12T14:50:54;7.70;;;6.57;;
8594;SDS011;4335;48.860;9.198;2022-11-12T14:53:26;7.07;;;6.17;;
8594;SDS011;4335;48.860;9.198;2022-11-12T14:55:57;8.53;;;7.20;;
8594;SDS011;4335;48.860;9.198;2022-11-12T14:58:25;14.60;;;10.00;;
8594;SDS011;4335;48.860;9.198;2022-11-12T15:00:53;9.63;;;8.07;;
8594;SDS011;4335;48.860;9.198;2022-11-12T15:03:22;10.07;;;7.47;;
8594;SDS011;4335;48.860;9.198;2022-11-12T15:05:58;8.73;;;7.93;;
8594;SDS011;4335;48.860;9.198;2022-11-12T15:08:36;10.93;;;9.40;;
8594;SDS011;4335;48.860;9.198;2022-11-12T15:11:16;18.47;;;14.40;;
8594;SDS011;4335;48.860;9.198;2022-11-12T15:13:46;19.30;;;13.87;;
8594;SDS011;4335;48.860;9.198;2022-11-12T15:16:16;13.00;;;10.17;;
8594;SDS011;4335;48.860;9.198;2022-11-12T15:19:01;10.60;;;8.90;;
8594;SDS011;4335;48.860;9.198;2022-11-12T15:21:34;12.17;;;8.47;;
8594;SDS011;4335;48.860;9.198;2022-11-12T15:24:04;12.07;;;8.57;;
8594;SDS011;4335;48.860;9.198;2022-11-12T15:26:33;9.07;;;7.93;;
8594;SDS011;4335;48.860;9.198;2022-11-12T15:29:02;9.57;;;8.30;;
8594;SDS011;4335;48.860;9.198;2022-11-12T15:31:43;11.60;;;8.60;;
8594;SDS011;4335;48.860;9.198;2022-11-12T15:37:19;11.43;;;8.33;;
8594;SDS011;4335;48.860;9.198;2022-11-12T15:39:50;9.97;;;8.43;;
8594;SDS011;4335;48.860;9.198;2022-11-12T15:42:29;9.63;;;8.03;;
8594;SDS011;4335;48.860;9.198;2022-11-12T15:45:12;10.43;;;8.77;;
8594;SDS011;4335;48.860;9.198;2022-11-12T15:47:56;10.10;;;8.53;;
8594;SDS011;4335;48.860;9.198;2022-11-12T15:50:24;10.03;;;8.93;;
8594;SDS011;4335;48.860;9.198;2022-11-12T15:53:00;9.50;;;8.50;;
8594;SDS011;4335;48.860;9.198;2022-11-12T15:55:32;12.37;;;9.53;;
8594;SDS011;4335;48.860;9.198;2022-11-12T15:58:04;11.67;;;9.83;;
8594;SDS011;4335;48.860;9.198;2022-11-12T16:00:36;11.93;;;10.10;;
8594;SDS011;4335;48.860;9.198;2022-11-12T16:03:09;12.73;;;10.83;;
8594;SDS011;4335;48.860;9.198;2022-11-12T16:05:38;15.67;;;11.77;;
8594;SDS011;4335;48.860;9.198;2022-11-12T16:08:08;13.17;;;11.13;;
8594;SDS011;4335;48.860;9.198;2022-11-12T16:10:36;15.43;;;11.37;;
8594;SDS011;4335;48.860;9.198;2022-11-12T16:13:06;13.63;;;10.53;;
8594;SDS011;4335;48.860;9.198;2022-11-12T16:15:41;11.60;;;10.33;;
8594;SDS011;4335;48.860;9.198;2022-11-12T16:18:08;10.43;;;8.90;;
8594;SDS011;4335;48.860;9.198;2022-11-12T16:20:36;11.33;;;9.53;;